Terminal Aerodrome Forecast
Issued by NWS

Home | Current Version | Previous Version | Text Only | Print | Product List | Glossary On
Versions: 1 2 3 4 5 6 7 8 9 10 11 12 13 14 15 16 17 18
397
FTAK31 PAFA 221739
TAFASC
TAF
PASC 221739Z 2218/2318 25009KT 1 1/2SM BR VCFG OVC003
     FM222000 30015KT P6SM -SHRA OVC030
     FM230300 29010KT P6SM BKN060 BKN100
     FM230600 07012KT P6SM FEW060 SCT100=

USA.gov is the U.S. government's official web portal to all federal, state and local government web resources and services.